createdAt,value
2023-05-11T00:01:10.059Z,11.32
2023-05-11T00:03:38.648Z,11.01
2023-05-11T00:06:06.323Z,11.06
2023-05-11T00:08:34.228Z,10.94
2023-05-11T00:11:01.798Z,10.91
2023-05-11T00:13:29.733Z,11.00
2023-05-11T00:15:57.699Z,11.08
2023-05-11T00:18:26.059Z,11.13
2023-05-11T00:20:54.276Z,10.79
2023-05-11T00:23:22.204Z,11.02
2023-05-11T00:25:49.838Z,10.88
2023-05-11T00:28:17.717Z,10.90
2023-05-11T00:30:45.571Z,10.97
2023-05-11T00:33:13.446Z,10.71
2023-05-11T00:35:41.155Z,10.72
2023-05-11T00:38:09.222Z,10.76
2023-05-11T00:40:36.898Z,10.56
2023-05-11T00:43:04.772Z,10.67
2023-05-11T00:45:33.172Z,10.72
2023-05-11T00:48:01.075Z,10.62
2023-05-11T00:50:28.981Z,10.55
2023-05-11T00:52:58.825Z,10.58
2023-05-11T00:55:27.737Z,10.49
2023-05-11T00:57:55.718Z,10.62
2023-05-11T01:00:23.415Z,10.45
2023-05-11T01:02:53.221Z,10.17
2023-05-11T01:05:21.121Z,10.24
2023-05-11T01:08:15.158Z,10.10
2023-05-11T01:10:49.045Z,10.04
2023-05-11T01:13:28.932Z,10.18
2023-05-11T01:15:58.233Z,10.22
2023-05-11T01:18:34.466Z,10.07
2023-05-11T01:21:10.077Z,9.89
2023-05-11T01:23:44.151Z,9.98
2023-05-11T01:26:34.210Z,10.11
2023-05-11T01:29:13.449Z,9.93
2023-05-11T01:31:43.230Z,9.79
2023-05-11T01:34:22.636Z,9.87
2023-05-11T01:36:54.936Z,10.01
2023-05-11T01:39:33.367Z,9.90
2023-05-11T01:42:09.191Z,9.85
2023-05-11T01:44:41.908Z,9.84
2023-05-11T01:47:12.040Z,9.70
2023-05-11T01:49:44.094Z,9.90
2023-05-11T01:52:13.801Z,10.04
2023-05-11T01:54:42.477Z,9.60
2023-05-11T01:57:12.619Z,9.81
2023-05-11T01:59:41.167Z,9.59
2023-05-11T02:02:10.252Z,9.68
2023-05-11T02:04:40.274Z,9.65
2023-05-11T02:07:11.001Z,9.67
2023-05-11T02:09:40.665Z,9.83
2023-05-11T02:12:09.946Z,9.62
2023-05-11T02:14:39.864Z,9.60
2023-05-11T02:17:08.983Z,9.50
2023-05-11T02:19:38.774Z,9.63
2023-05-11T02:22:07.141Z,9.56
2023-05-11T02:24:35.834Z,9.43
2023-05-11T02:27:03.433Z,9.58
2023-05-11T02:29:31.103Z,8.99
2023-05-11T02:32:12.375Z,9.28
2023-05-11T02:34:43.005Z,9.46
2023-05-11T02:37:15.440Z,9.44
2023-05-11T02:39:46.119Z,9.48
2023-05-11T02:42:18.432Z,9.28
2023-05-11T02:45:03.730Z,8.96
2023-05-11T02:47:36.883Z,9.25
2023-05-11T02:50:06.063Z,9.11
2023-05-11T02:52:43.390Z,8.94
2023-05-11T02:55:13.686Z,8.94
2023-05-11T02:57:41.413Z,8.87
2023-05-11T03:00:11.363Z,8.86
2023-05-11T03:02:38.905Z,9.04
2023-05-11T03:05:07.490Z,8.98
2023-05-11T03:07:35.473Z,9.09
2023-05-11T03:10:03.583Z,9.08
2023-05-11T03:12:35.456Z,9.43
2023-05-11T03:15:04.939Z,8.96
2023-05-11T03:17:34.831Z,8.95
2023-05-11T03:20:04.372Z,9.05
2023-05-11T03:22:35.429Z,8.90
2023-05-11T03:25:05.220Z,9.20
2023-05-11T03:27:36.072Z,9.26
2023-05-11T03:30:07.361Z,9.33
2023-05-11T03:32:38.534Z,9.12
2023-05-11T03:35:08.019Z,9.14
2023-05-11T03:37:38.167Z,9.34
2023-05-11T03:40:08.983Z,10.10
2023-05-11T03:42:47.042Z,11.90
2023-05-11T03:45:19.834Z,11.20
2023-05-11T03:47:50.206Z,11.41
2023-05-11T03:50:18.292Z,10.97
2023-05-11T03:52:46.024Z,11.68
2023-05-11T03:55:13.740Z,11.52
2023-05-11T03:57:41.065Z,11.58
2023-05-11T04:00:11.743Z,11.39
2023-05-11T04:02:45.948Z,11.93
2023-05-11T04:05:14.009Z,11.53
2023-05-11T04:07:44.482Z,11.89
2023-05-11T04:10:12.301Z,11.70
2023-05-11T04:12:39.467Z,12.70
2023-05-11T04:15:07.541Z,13.72
2023-05-11T04:17:34.727Z,12.22
2023-05-11T04:20:02.219Z,12.22
2023-05-11T04:22:29.533Z,12.73
2023-05-11T04:24:57.061Z,12.18
2023-05-11T04:27:24.279Z,12.18
2023-05-11T04:29:51.964Z,11.64
2023-05-11T04:32:19.259Z,12.11
2023-05-11T04:34:46.747Z,12.14
2023-05-11T04:37:16.653Z,13.05
2023-05-11T04:39:44.193Z,12.93
2023-05-11T04:42:11.892Z,13.27
2023-05-11T04:44:39.519Z,11.98
2023-05-11T04:47:07.481Z,15.24
2023-05-11T04:49:35.270Z,13.56
2023-05-11T04:52:02.485Z,16.37
2023-05-11T04:54:31.285Z,14.12
2023-05-11T04:56:58.580Z,13.95
2023-05-11T04:59:26.112Z,12.51
2023-05-11T05:01:53.412Z,13.21
2023-05-11T05:04:21.246Z,14.72
2023-05-11T05:06:48.512Z,14.46
2023-05-11T05:09:16.794Z,17.85
2023-05-11T05:11:44.392Z,19.78
2023-05-11T05:14:12.568Z,17.56
2023-05-11T05:16:39.776Z,22.60
2023-05-11T05:19:07.578Z,22.13
2023-05-11T05:21:35.921Z,22.54
2023-05-11T05:24:04.441Z,19.74
2023-05-11T05:26:31.660Z,19.36
2023-05-11T05:28:59.362Z,17.84
2023-05-11T05:31:26.788Z,22.16
2023-05-11T05:33:54.534Z,18.79
2023-05-11T05:36:22.269Z,19.82
2023-05-11T05:38:49.871Z,20.64
2023-05-11T05:41:17.316Z,20.48
2023-05-11T05:43:46.252Z,21.70
2023-05-11T05:46:14.106Z,25.64
2023-05-11T05:48:42.244Z,27.87
2023-05-11T05:51:09.988Z,27.38
2023-05-11T05:53:38.323Z,29.40
2023-05-11T05:56:06.066Z,28.58
2023-05-11T05:58:33.883Z,27.84
2023-05-11T06:01:01.773Z,21.44
2023-05-11T06:03:30.119Z,20.69
2023-05-11T06:05:57.614Z,20.57
2023-05-11T06:08:25.553Z,24.88
2023-05-11T06:10:52.771Z,28.58
2023-05-11T06:13:20.400Z,30.22
2023-05-11T06:15:47.837Z,24.05
2023-05-11T06:18:24.340Z,28.09
2023-05-11T06:20:52.179Z,26.55
2023-05-11T06:23:20.114Z,21.70
2023-05-11T06:25:48.021Z,22.08
2023-05-11T06:28:15.593Z,24.33
2023-05-11T06:30:42.823Z,23.10
2023-05-11T06:33:10.943Z,29.17
2023-05-11T06:35:39.741Z,27.48
2023-05-11T06:38:09.578Z,23.78
2023-05-11T06:40:37.338Z,27.17
2023-05-11T06:43:04.994Z,22.07
2023-05-11T06:45:47.894Z,23.60
2023-05-11T06:48:16.139Z,26.15
2023-05-11T06:50:43.416Z,23.56
2023-05-11T06:53:14.178Z,23.00
2023-05-11T06:55:41.700Z,23.46
2023-05-11T06:58:09.284Z,26.79
2023-05-11T07:00:36.480Z,30.10
2023-05-11T07:03:04.734Z,22.62
2023-05-11T07:05:32.076Z,19.98
2023-05-11T07:07:59.603Z,25.77
2023-05-11T07:10:26.949Z,26.97
2023-05-11T07:12:54.421Z,29.85
2023-05-11T07:15:21.715Z,24.47
2023-05-11T07:17:49.900Z,24.43
2023-05-11T07:20:20.535Z,23.06
2023-05-11T07:22:48.204Z,25.45
2023-05-11T07:25:15.449Z,28.98
2023-05-11T07:27:43.091Z,28.04
2023-05-11T07:30:10.809Z,24.40
2023-05-11T07:32:38.892Z,23.81
2023-05-11T07:35:09.753Z,22.19
2023-05-11T07:37:37.340Z,26.33
2023-05-11T07:40:05.088Z,24.51
2023-05-11T07:42:32.696Z,23.51
2023-05-11T07:44:59.919Z,25.83
2023-05-11T07:47:27.446Z,25.09
2023-05-11T07:49:54.714Z,20.63
2023-05-11T07:52:22.194Z,20.05
2023-05-11T07:54:49.361Z,22.58
2023-05-11T07:57:17.126Z,24.42
2023-05-11T07:59:44.328Z,26.71
2023-05-11T08:02:13.436Z,27.15
2023-05-11T08:04:40.860Z,26.80
2023-05-11T08:07:09.028Z,22.50
2023-05-11T08:09:36.956Z,21.21
2023-05-11T08:12:04.756Z,20.69
2023-05-11T08:14:32.379Z,19.60
2023-05-11T08:16:59.973Z,20.04
2023-05-11T08:19:27.540Z,20.55
2023-05-11T08:21:55.373Z,20.28
2023-05-11T08:24:22.583Z,20.40
2023-05-11T08:26:50.079Z,20.30
2023-05-11T08:29:17.326Z,21.21
2023-05-11T08:31:44.856Z,22.78
2023-05-11T08:34:19.175Z,21.93
2023-05-11T08:36:47.910Z,19.97
2023-05-11T08:39:24.675Z,22.04
2023-05-11T08:42:02.949Z,22.58
2023-05-11T08:44:33.006Z,23.32
2023-05-11T08:47:18.907Z,20.26
2023-05-11T08:49:48.499Z,22.29
2023-05-11T08:52:18.368Z,23.40
2023-05-11T08:54:46.620Z,22.24
2023-05-11T08:57:14.991Z,24.54
2023-05-11T08:59:45.952Z,22.70
2023-05-11T09:02:18.979Z,25.14
2023-05-11T09:04:48.972Z,24.74
2023-05-11T09:07:18.703Z,24.07
2023-05-11T09:09:47.686Z,21.56
2023-05-11T09:12:16.589Z,20.78
2023-05-11T09:14:44.313Z,20.09
2023-05-11T09:17:12.245Z,20.24
2023-05-11T09:19:58.166Z,23.88
2023-05-11T09:22:27.743Z,22.25
2023-05-11T09:24:56.710Z,21.35
2023-05-11T09:27:25.182Z,20.81
2023-05-11T09:29:54.341Z,22.62
2023-05-11T09:32:22.065Z,21.13
2023-05-11T09:34:50.281Z,20.66
2023-05-11T09:37:18.855Z,20.90
2023-05-11T09:40:14.018Z,22.06
2023-05-11T09:42:34.072Z,21.70
2023-05-11T09:45:01.308Z,23.09
2023-05-11T09:47:40.209Z,22.32
2023-05-11T09:50:17.269Z,22.77
2023-05-11T09:52:54.347Z,20.46
2023-05-11T09:55:21.657Z,23.52
2023-05-11T09:57:57.494Z,23.53
2023-05-11T10:00:25.491Z,20.49
2023-05-11T10:03:05.085Z,20.19
2023-05-11T10:05:36.276Z,21.82
2023-05-11T10:08:05.486Z,21.45
2023-05-11T10:10:33.837Z,21.00
2023-05-11T10:13:03.524Z,21.14
2023-05-11T10:15:35.377Z,21.14
2023-05-11T10:18:03.229Z,19.92
2023-05-11T10:20:30.506Z,20.26
2023-05-11T10:22:58.188Z,22.15
2023-05-11T10:25:29.107Z,20.93
2023-05-11T10:27:57.742Z,19.76
2023-05-11T10:30:25.082Z,19.09
2023-05-11T10:32:53.419Z,20.90
2023-05-11T10:35:21.536Z,21.42
2023-05-11T10:37:50.613Z,20.91
2023-05-11T10:40:18.394Z,20.37
2023-05-11T10:43:01.156Z,20.23
2023-05-11T10:45:43.635Z,19.50
2023-05-11T10:48:20.271Z,19.26
2023-05-11T10:51:12.503Z,20.02
2023-05-11T10:53:52.599Z,20.26
2023-05-11T10:56:26.101Z,19.97
2023-05-11T10:59:18.600Z,20.44
2023-05-11T11:01:46.940Z,20.42
2023-05-11T11:04:14.569Z,19.15
2023-05-11T11:06:43.704Z,19.12
2023-05-11T11:09:16.494Z,19.14
2023-05-11T11:11:51.089Z,18.97
2023-05-11T11:14:19.332Z,18.63
2023-05-11T11:17:15.977Z,18.13
2023-05-11T11:19:43.709Z,18.39
2023-05-11T11:22:36.130Z,18.76
2023-05-11T11:25:05.815Z,18.74
2023-05-11T11:27:40.044Z,18.47
2023-05-11T11:30:28.911Z,18.38
2023-05-11T11:33:08.544Z,18.71
2023-05-11T11:35:42.281Z,18.60
2023-05-11T11:38:20.663Z,19.11
2023-05-11T11:40:53.092Z,19.23
2023-05-11T11:43:26.260Z,18.25
2023-05-11T11:45:55.866Z,18.60
2023-05-11T11:48:35.815Z,18.79
2023-05-11T11:51:11.537Z,18.24
2023-05-11T11:53:41.559Z,18.45
2023-05-11T11:56:28.981Z,18.37
2023-05-11T11:58:56.165Z,18.17
2023-05-11T12:01:26.999Z,18.47
2023-05-11T12:04:32.082Z,18.66
2023-05-11T12:06:59.868Z,18.94
2023-05-11T12:09:27.626Z,18.48
2023-05-11T12:11:56.504Z,18.22
2023-05-11T12:14:24.020Z,18.16
2023-05-11T12:17:05.697Z,18.26
2023-05-11T12:19:33.179Z,18.56
2023-05-11T12:22:01.501Z,18.84
2023-05-11T12:24:28.717Z,18.73
2023-05-11T12:26:57.575Z,18.40
2023-05-11T12:29:25.162Z,18.82
2023-05-11T12:31:53.007Z,18.75
2023-05-11T12:34:22.841Z,19.14
2023-05-11T12:36:52.921Z,19.37
2023-05-11T12:39:25.138Z,18.63
2023-05-11T12:41:55.666Z,18.47
2023-05-11T12:44:25.552Z,18.71
2023-05-11T12:46:53.494Z,18.90
2023-05-11T12:49:26.418Z,19.10
2023-05-11T12:51:57.665Z,18.52
2023-05-11T12:54:33.031Z,18.54
2023-05-11T12:57:02.030Z,18.68
2023-05-11T12:59:32.295Z,18.49
2023-05-11T13:02:16.214Z,18.90
2023-05-11T13:04:45.214Z,18.45
2023-05-11T13:07:15.186Z,18.52
2023-05-11T13:09:42.791Z,18.89
2023-05-11T13:12:17.500Z,18.89
2023-05-11T13:14:50.987Z,18.68
2023-05-11T13:17:35.308Z,18.75
2023-05-11T13:20:27.491Z,18.75
2023-05-11T13:23:13.314Z,18.66
2023-05-11T13:25:47.297Z,18.35
2023-05-11T13:28:16.226Z,18.79
2023-05-11T13:30:44.097Z,18.66
2023-05-11T13:33:11.745Z,18.47
2023-05-11T13:35:42.970Z,18.41
2023-05-11T13:38:11.261Z,18.49
2023-05-11T13:40:38.984Z,18.47
2023-05-11T13:43:07.538Z,18.80
2023-05-11T13:45:36.555Z,19.09
2023-05-11T13:48:04.511Z,18.83
2023-05-11T13:50:32.397Z,18.80
2023-05-11T13:52:59.910Z,18.20
2023-05-11T13:55:29.387Z,18.42
2023-05-11T13:57:57.177Z,18.58
2023-05-11T14:00:24.589Z,18.70
2023-05-11T14:02:53.029Z,18.53
2023-05-11T14:05:23.033Z,18.58
2023-05-11T14:07:50.733Z,18.85
2023-05-11T14:10:18.569Z,19.07
2023-05-11T14:12:46.431Z,18.80
2023-05-11T14:15:14.167Z,19.02
2023-05-11T14:17:43.252Z,18.86
2023-05-11T14:20:12.174Z,19.14
2023-05-11T14:22:43.096Z,19.17
2023-05-11T14:25:10.807Z,18.85
2023-05-11T14:27:38.448Z,18.82
2023-05-11T14:30:07.458Z,19.05
2023-05-11T14:32:35.062Z,19.04
2023-05-11T14:35:02.417Z,19.00
2023-05-11T14:37:29.903Z,18.80
2023-05-11T14:39:57.175Z,18.83
2023-05-11T14:42:24.710Z,18.58
2023-05-11T14:44:51.897Z,18.90
2023-05-11T14:47:19.445Z,18.66
2023-05-11T14:49:46.644Z,18.82
2023-05-11T14:52:14.163Z,19.07
2023-05-11T14:54:42.610Z,19.30
2023-05-11T14:57:10.203Z,19.07
2023-05-11T14:59:47.692Z,18.81
2023-05-11T15:02:19.057Z,18.92
2023-05-11T15:04:46.377Z,19.10
2023-05-11T15:07:14.500Z,19.18
2023-05-11T15:09:41.713Z,18.86
2023-05-11T15:12:09.302Z,19.05
2023-05-11T15:14:36.464Z,18.59
2023-05-11T15:17:04.048Z,18.67
2023-05-11T15:19:31.237Z,18.73
2023-05-11T15:21:59.232Z,18.81
2023-05-11T15:24:26.734Z,18.67
2023-05-11T15:26:54.261Z,18.82
2023-05-11T15:29:22.366Z,19.12
2023-05-11T15:31:49.950Z,18.93
2023-05-11T15:34:17.413Z,18.78
2023-05-11T15:36:46.268Z,18.58
2023-05-11T15:39:13.498Z,18.56
2023-05-11T15:41:41.086Z,18.81
2023-05-11T15:44:08.288Z,18.88
2023-05-11T15:46:36.557Z,18.82
2023-05-11T15:49:03.874Z,18.79
2023-05-11T15:51:32.065Z,18.71
2023-05-11T15:53:59.472Z,18.85
2023-05-11T15:56:27.116Z,18.76
2023-05-11T15:58:54.304Z,18.66
2023-05-11T16:01:22.325Z,18.70
2023-05-11T16:03:49.877Z,18.81
2023-05-11T16:06:17.442Z,18.84
2023-05-11T16:08:45.059Z,18.74
2023-05-11T16:11:12.573Z,18.86
2023-05-11T16:13:39.827Z,18.69
2023-05-11T16:16:07.456Z,18.74
2023-05-11T16:18:34.957Z,18.97
2023-05-11T16:21:04.199Z,18.81
2023-05-11T16:23:31.832Z,18.96
2023-05-11T16:26:00.301Z,19.05
2023-05-11T16:28:27.458Z,18.78
2023-05-11T16:30:57.830Z,18.89
2023-05-11T16:33:26.498Z,18.51
2023-05-11T16:35:54.015Z,18.62
2023-05-11T16:38:22.441Z,18.86
2023-05-11T16:40:50.441Z,18.84
2023-05-11T16:43:17.809Z,18.66
2023-05-11T16:45:45.857Z,18.61
2023-05-11T16:48:13.211Z,18.85
2023-05-11T16:50:40.774Z,18.77
2023-05-11T16:53:08.841Z,18.97
2023-05-11T16:55:36.381Z,18.94
2023-05-11T16:58:03.625Z,18.75
2023-05-11T17:00:34.078Z,18.58
2023-05-11T17:03:01.909Z,18.57
2023-05-11T17:05:29.507Z,18.43
2023-05-11T17:07:56.849Z,18.46
2023-05-11T17:10:24.611Z,18.34
2023-05-11T17:12:52.145Z,18.10
2023-05-11T17:15:19.687Z,18.02
2023-05-11T17:17:46.978Z,18.18
2023-05-11T17:20:14.633Z,18.17
2023-05-11T17:22:42.132Z,18.10
2023-05-11T17:25:09.914Z,18.09
2023-05-11T17:27:37.614Z,17.97
2023-05-11T17:30:06.622Z,17.91
2023-05-11T17:32:34.250Z,17.81
2023-05-11T17:35:02.186Z,17.72
2023-05-11T17:37:32.271Z,17.60
2023-05-11T17:40:01.297Z,17.51
2023-05-11T17:42:28.722Z,17.44
2023-05-11T17:44:56.596Z,17.44
2023-05-11T17:47:24.269Z,17.33
2023-05-11T17:49:52.033Z,16.99
2023-05-11T17:52:19.262Z,16.86
2023-05-11T17:54:46.855Z,17.04
2023-05-11T17:57:14.104Z,16.91
2023-05-11T17:59:41.675Z,16.86
2023-05-11T18:02:09.565Z,16.74
2023-05-11T18:04:37.316Z,16.67
2023-05-11T18:07:04.711Z,16.84
2023-05-11T18:09:32.196Z,16.67
2023-05-11T18:11:59.467Z,16.55
2023-05-11T18:14:27.892Z,16.65
2023-05-11T18:16:55.128Z,16.59
2023-05-11T18:19:22.645Z,16.22
2023-05-11T18:21:51.909Z,16.09
2023-05-11T18:24:19.827Z,15.95
2023-05-11T18:26:47.118Z,15.79
2023-05-11T18:29:19.278Z,15.52
2023-05-11T18:31:46.886Z,15.37
2023-05-11T18:34:14.369Z,15.11
2023-05-11T18:36:42.192Z,15.03
2023-05-11T18:39:09.703Z,14.89
2023-05-11T18:41:37.053Z,14.70
2023-05-11T18:44:04.789Z,14.62
2023-05-11T18:46:32.314Z,14.57
2023-05-11T18:48:59.854Z,14.58
2023-05-11T18:51:27.030Z,14.51
2023-05-11T18:53:54.908Z,14.43
2023-05-11T18:56:22.503Z,14.39
2023-05-11T18:58:50.507Z,14.38
2023-05-11T19:01:18.841Z,14.36
2023-05-11T19:03:47.173Z,14.29
2023-05-11T19:06:14.460Z,14.18
2023-05-11T19:08:42.310Z,14.14
2023-05-11T19:11:10.731Z,14.10
2023-05-11T19:13:38.426Z,14.01
2023-05-11T19:16:05.907Z,13.92
2023-05-11T19:18:35.708Z,13.96
2023-05-11T19:21:04.997Z,13.94
2023-05-11T19:23:33.565Z,13.84
2023-05-11T19:26:00.957Z,13.77
2023-05-11T19:28:28.552Z,13.83
2023-05-11T19:31:03.536Z,13.89
2023-05-11T19:33:31.470Z,13.85
2023-05-11T19:35:59.156Z,13.82
2023-05-11T19:38:26.993Z,13.73
2023-05-11T19:40:54.361Z,13.66
2023-05-11T19:43:23.712Z,13.57
2023-05-11T19:45:51.017Z,13.56
2023-05-11T19:48:19.144Z,13.53
2023-05-11T19:50:47.072Z,13.53
2023-05-11T19:53:15.050Z,13.54
2023-05-11T19:55:42.352Z,13.48
2023-05-11T19:58:10.677Z,14.04
2023-05-11T20:00:41.066Z,14.42
2023-05-11T20:03:09.099Z,14.55
2023-05-11T20:05:36.967Z,14.51
2023-05-11T20:08:07.911Z,14.65
2023-05-11T20:10:36.009Z,14.72
2023-05-11T20:13:05.619Z,14.70
2023-05-11T20:15:34.139Z,14.85
2023-05-11T20:18:05.275Z,14.74
2023-05-11T20:20:32.781Z,14.68
2023-05-11T20:23:03.611Z,14.71
2023-05-11T20:25:31.137Z,14.62
2023-05-11T20:27:58.722Z,14.65
2023-05-11T20:30:25.993Z,14.86
2023-05-11T20:35:23.685Z,14.89
2023-05-11T20:37:51.193Z,14.75
2023-05-11T20:40:18.858Z,14.80
2023-05-11T20:42:46.710Z,14.76
2023-05-11T20:45:14.013Z,14.76
2023-05-11T20:47:41.664Z,14.73
2023-05-11T20:50:10.212Z,14.55
2023-05-11T20:52:37.903Z,14.75
2023-05-11T20:55:06.170Z,14.67
2023-05-11T20:57:33.722Z,14.84
2023-05-11T21:02:31.704Z,14.43
2023-05-11T21:05:02.141Z,14.37
2023-05-11T21:07:30.119Z,14.35
2023-05-11T21:09:57.478Z,14.50
2023-05-11T21:12:25.089Z,14.37
2023-05-11T21:14:52.494Z,14.39
2023-05-11T21:17:21.628Z,14.23
2023-05-11T21:19:48.825Z,13.97
2023-05-11T21:22:16.287Z,13.91
2023-05-11T21:24:43.512Z,14.10
2023-05-11T21:27:11.337Z,13.85
2023-05-11T21:29:38.505Z,13.94
2023-05-11T21:32:06.874Z,13.99
2023-05-11T21:34:34.063Z,13.66
2023-05-11T21:37:03.447Z,13.81
2023-05-11T21:39:30.695Z,13.90
2023-05-11T21:41:58.267Z,13.87
2023-05-11T21:44:25.498Z,13.91
2023-05-11T21:46:53.201Z,13.84
2023-05-11T21:49:20.466Z,13.74
2023-05-11T21:51:48.834Z,13.65
2023-05-11T21:54:16.244Z,13.87
2023-05-11T21:56:43.717Z,13.75
2023-05-11T21:59:10.959Z,13.77
2023-05-11T22:01:38.517Z,13.61
2023-05-11T22:04:05.932Z,13.57
2023-05-11T22:06:33.573Z,13.51
2023-05-11T22:09:00.839Z,13.62
2023-05-11T22:11:28.371Z,13.45
2023-05-11T22:13:55.655Z,13.60
2023-05-11T22:16:23.271Z,13.54
2023-05-11T22:18:50.975Z,13.55
2023-05-11T22:21:18.507Z,13.37
2023-05-11T22:23:45.696Z,13.30
2023-05-11T22:26:13.254Z,13.35
2023-05-11T22:28:41.252Z,13.30
2023-05-11T22:31:08.747Z,13.45
2023-05-11T22:33:35.953Z,13.36
2023-05-11T22:36:03.839Z,13.29
2023-05-11T22:38:32.741Z,13.40
2023-05-11T22:41:00.866Z,13.24
2023-05-11T22:43:28.756Z,13.26
2023-05-11T22:45:56.279Z,13.37
2023-05-11T22:48:23.569Z,13.44
2023-05-11T22:50:51.163Z,13.30
2023-05-11T22:53:20.070Z,13.47
2023-05-11T22:55:47.845Z,13.22
2023-05-11T22:58:15.333Z,13.34
2023-05-11T23:00:43.115Z,13.25
2023-05-11T23:03:10.562Z,13.38
2023-05-11T23:05:38.361Z,13.22
2023-05-11T23:08:05.527Z,13.02
2023-05-11T23:10:33.202Z,13.04
2023-05-11T23:13:00.510Z,12.94
2023-05-11T23:15:27.729Z,12.96
2023-05-11T23:17:55.272Z,13.01
2023-05-11T23:20:22.918Z,12.90
2023-05-11T23:22:50.402Z,12.95
2023-05-11T23:25:17.658Z,13.03
2023-05-11T23:27:45.108Z,12.87
2023-05-11T23:30:12.888Z,12.95
2023-05-11T23:32:40.434Z,12.78
2023-05-11T23:35:08.204Z,12.77
2023-05-11T23:37:35.701Z,12.74
2023-05-11T23:40:03.023Z,12.89
2023-05-11T23:42:30.651Z,12.87
2023-05-11T23:45:00.032Z,12.82
2023-05-11T23:47:28.362Z,12.89
2023-05-11T23:49:55.597Z,12.66
2023-05-11T23:52:23.374Z,12.61
2023-05-11T23:54:52.536Z,12.40
2023-05-11T23:57:20.087Z,12.59
2023-05-11T23:59:47.324Z,12.68
